Station Historical Data
Daily Summary for February 7, 2017 Units:  Both    English   Metric
« Previous Day
Next Day »
Daily Weekly Monthly Yearly Custom
  High: Low: Average:
Temperature: 55.1 °F /  12.8 °C 29.6 °F /  -1.3 °C 38.6 °F /  3.7 °C
Dew Point: 50.5 °F /  10.3 °C 22.0 °F /  -5.6 °C 33.9 °F /  1.1 °C
Humidity: 96% 72% 83%
Wind Speed: 19.0mph /  30.6km/h - 5.3mph /  8.5km/h
Wind Gust: 40.0mph /  64.4km/h - -
Wind- - East
Pressure: 29.91 in /  1012.8 hPa 29.29 in /  991.8 hPa -
Precipitation: 0.00 in /  0 mm    
Historical Graphs
 
 
Tabular Data for February 7, 2017
Time Temperature Dew Point Pressure Wind Wind Speed Wind Gust Humidity Rainfall Rate (Hourly)
00:04 30.1 °F /  -1.1 °C 22.5 °F /  -5.3 °C 29.91in /  1012.8hPa NE 1.0mph /  1.6km/h 6.0mph /  9.7km/h 73% 0.00in /  0mm
00:09 30.1 °F /  -1.1 °C 22.5 °F /  -5.3 °C 29.91in /  1012.8hPa ESE 2.0mph /  3.2km/h 6.0mph /  9.7km/h 73% 0.00in /  0mm
00:14 30.0 °F /  -1.1 °C 22.4 °F /  -5.3 °C 29.90in /  1012.4hPa East 6.0mph /  9.7km/h 6.0mph /  9.7km/h 73% 0.00in /  0mm
00:19 29.9 °F /  -1.2 °C 22.3 °F /  -5.4 °C 29.89in /  1012.1hPa ENE 1.0mph /  1.6km/h 6.0mph /  9.7km/h 73% 0.00in /  0mm
00:24 29.9 °F /  -1.2 °C 22.3 °F /  -5.4 °C 29.90in /  1012.4hPa ENE 2.0mph /  3.2km/h 7.0mph /  11.3km/h 73% 0.00in /  0mm
00:29 29.8 °F /  -1.2 °C 22.2 °F /  -5.4 °C 29.89in /  1012.1hPa ENE 2.0mph /  3.2km/h 7.0mph /  11.3km/h 73% 0.00in /  0mm
00:34 29.7 °F /  -1.3 °C 22.1 °F /  -5.5 °C 29.89in /  1012.1hPa ENE 2.0mph /  3.2km/h 6.0mph /  9.7km/h 73% 0.00in /  0mm
00:39 29.7 °F /  -1.3 °C 22.1 °F /  -5.5 °C 29.89in /  1012.1hPa ENE 2.0mph /  3.2km/h 6.0mph /  9.7km/h 73% 0.00in /  0mm
00:44 29.6 °F /  -1.3 °C 22.0 °F /  -5.6 °C 29.88in /  1011.7hPa ENE 3.0mph /  4.8km/h 5.0mph /  8km/h 73% 0.00in /  0mm
00:49 29.6 °F /  -1.3 °C 22.0 °F /  -5.6 °C 29.88in /  1011.7hPa East 3.0mph /  4.8km/h 6.0mph /  9.7km/h 73% 0.00in /  0mm
00:54 29.6 °F /  -1.3 °C 22.0 °F /  -5.6 °C 29.88in /  1011.7hPa East 5.0mph /  8km/h 6.0mph /  9.7km/h 73% 0.00in /  0mm
00:59 29.7 °F /  -1.3 °C 22.1 °F /  -5.5 °C 29.87in /  1011.4hPa ENE 3.0mph /  4.8km/h 6.0mph /  9.7km/h 73% 0.00in /  0mm
01:04 29.7 °F /  -1.3 °C 22.1 °F /  -5.5 °C 29.87in /  1011.4hPa ENE 2.0mph /  3.2km/h 5.0mph /  8km/h 73% 0.00in /  0mm
01:09 29.8 °F /  -1.2 °C 22.2 °F /  -5.4 °C 29.88in /  1011.7hPa NE 3.0mph /  4.8km/h 5.0mph /  8km/h 73% 0.00in /  0mm
01:14 30.0 °F /  -1.1 °C 22.4 °F /  -5.3 °C 29.88in /  1011.7hPa ENE 2.0mph /  3.2km/h 5.0mph /  8km/h 73% 0.00in /  0mm
01:19 30.1 °F /  -1.1 °C 22.5 °F /  -5.3 °C 29.87in /  1011.4hPa NE 3.0mph /  4.8km/h 4.0mph /  6.4km/h 73% 0.00in /  0mm
01:24 30.1 °F /  -1.1 °C 22.5 °F /  -5.3 °C 29.87in /  1011.4hPa NE 1.0mph /  1.6km/h 4.0mph /  6.4km/h 73% 0.00in /  0mm
01:29 30.2 °F /  -1 °C 22.6 °F /  -5.2 °C 29.87in /  1011.4hPa NE 2.0mph /  3.2km/h 4.0mph /  6.4km/h 73% 0.00in /  0mm
01:34 30.3 °F /  -0.9 °C 22.7 °F /  -5.2 °C 29.86in /  1011.1hPa NE 3.0mph /  4.8km/h 6.0mph /  9.7km/h 73% 0.00in /  0mm
01:39 30.5 °F /  -0.8 °C 22.9 °F /  -5.1 °C 29.86in /  1011.1hPa NE 3.0mph /  4.8km/h 6.0mph /  9.7km/h 73% 0.00in /  0mm
01:44 30.5 °F /  -0.8 °C 22.9 °F /  -5.1 °C 29.86in /  1011.1hPa NE 3.0mph /  4.8km/h 5.0mph /  8km/h 73% 0.00in /  0mm
01:49 30.6 °F /  -0.8 °C 23.0 °F /  -5 °C 29.86in /  1011.1hPa NE 3.0mph /  4.8km/h 5.0mph /  8km/h 73% 0.00in /  0mm
01:54 30.5 °F /  -0.8 °C 22.9 °F /  -5.1 °C 29.86in /  1011.1hPa NE 2.0mph /  3.2km/h 5.0mph /  8km/h 73% 0.00in /  0mm
01:59 30.7 °F /  -0.7 °C 23.1 °F /  -4.9 °C 29.86in /  1011.1hPa NE 2.0mph /  3.2km/h 6.0mph /  9.7km/h 73% 0.00in /  0mm
02:04 30.8 °F /  -0.7 °C 23.2 °F /  -4.9 °C 29.86in /  1011.1hPa NE 3.0mph /  4.8km/h 6.0mph /  9.7km/h 73% 0.00in /  0mm
02:09 31.0 °F /  -0.6 °C 23.4 °F /  -4.8 °C 29.86in /  1011.1hPa NNE 3.0mph /  4.8km/h 5.0mph /  8km/h 73% 0.00in /  0mm
02:14 31.1 °F /  -0.5 °C 23.5 °F /  -4.7 °C 29.85in /  1010.7hPa ENE 3.0mph /  4.8km/h 4.0mph /  6.4km/h 73% 0.00in /  0mm
02:19 31.2 °F /  -0.4 °C 23.5 °F /  -4.7 °C 29.85in /  1010.7hPa NE 3.0mph /  4.8km/h 8.0mph /  12.9km/h 73% 0.00in /  0mm
02:24 31.4 °F /  -0.3 °C 23.7 °F /  -4.6 °C 29.85in /  1010.7hPa NNE 2.0mph /  3.2km/h 7.0mph /  11.3km/h 73% 0.00in /  0mm
02:29 31.4 °F /  -0.3 °C 23.4 °F /  -4.8 °C 29.85in /  1010.7hPa NE 1.0mph /  1.6km/h 6.0mph /  9.7km/h 72% 0.00in /  0mm
02:34 31.6 °F /  -0.2 °C 23.9 °F /  -4.5 °C 29.85in /  1010.7hPa NE 2.0mph /  3.2km/h 6.0mph /  9.7km/h 73% 0.00in /  0mm
02:39 31.7 °F /  -0.2 °C 23.7 °F /  -4.6 °C 29.85in /  1010.7hPa NE 3.0mph /  4.8km/h 6.0mph /  9.7km/h 72% 0.00in /  0mm
02:44 31.7 °F /  -0.2 °C 23.7 °F /  -4.6 °C 29.85in /  1010.7hPa NE 3.0mph /  4.8km/h 6.0mph /  9.7km/h 72% 0.00in /  0mm
02:49 31.7 °F /  -0.2 °C 23.7 °F /  -4.6 °C 29.85in /  1010.7hPa NE 3.0mph /  4.8km/h 7.0mph /  11.3km/h 72% 0.00in /  0mm
02:54 31.8 °F /  -0.1 °C 24.1 °F /  -4.4 °C 29.84in /  1010.4hPa NE 3.0mph /  4.8km/h 7.0mph /  11.3km/h 73% 0.00in /  0mm
02:59 31.8 °F /  -0.1 °C 23.8 °F /  -4.6 °C 29.84in /  1010.4hPa NE 4.0mph /  6.4km/h 8.0mph /  12.9km/h 72% 0.00in /  0mm
03:04 31.9 °F /  -0.1 °C 23.9 °F /  -4.5 °C 29.84in /  1010.4hPa NE 4.0mph /  6.4km/h 8.0mph /  12.9km/h 72% 0.00in /  0mm
03:09 31.9 °F /  -0.1 °C 23.9 °F /  -4.5 °C 29.83in /  1010hPa NE 3.0mph /  4.8km/h 7.0mph /  11.3km/h 72% 0.00in /  0mm
03:14 31.9 °F /  -0.1 °C 23.9 °F /  -4.5 °C 29.84in /  1010.4hPa NE 3.0mph /  4.8km/h 8.0mph /  12.9km/h 72% 0.00in /  0mm
03:19 32.0 °F /  0 °C 24.3 °F /  -4.3 °C 29.83in /  1010hPa NE 5.0mph /  8km/h 7.0mph /  11.3km/h 73% 0.00in /  0mm
03:24 31.9 °F /  -0.1 °C 24.2 °F /  -4.3 °C 29.83in /  1010hPa ENE 3.0mph /  4.8km/h 7.0mph /  11.3km/h 73% 0.00in /  0mm
03:29 32.0 °F /  0 °C 24.3 °F /  -4.3 °C 29.83in /  1010hPa NE 3.0mph /  4.8km/h 7.0mph /  11.3km/h 73% 0.00in /  0mm
03:34 31.9 °F /  -0.1 °C 24.2 °F /  -4.3 °C 29.83in /  1010hPa NE 3.0mph /  4.8km/h 7.0mph /  11.3km/h 73% 0.00in /  0mm
03:39 32.0 °F /  0 °C 24.3 °F /  -4.3 °C 29.83in /  1010hPa ENE 4.0mph /  6.4km/h 5.0mph /  8km/h 73% 0.00in /  0mm
03:44 31.9 °F /  -0.1 °C 24.2 °F /  -4.3 °C 29.83in /  1010hPa NE 5.0mph /  8km/h 8.0mph /  12.9km/h 73% 0.00in /  0mm
03:49 32.0 °F /  0 °C 24.3 °F /  -4.3 °C 29.83in /  1010hPa NE 4.0mph /  6.4km/h 8.0mph /  12.9km/h 73% 0.00in /  0mm
03:54 32.0 °F /  0 °C 24.3 °F /  -4.3 °C 29.83in /  1010hPa NE 3.0mph /  4.8km/h 6.0mph /  9.7km/h 73% 0.00in /  0mm
03:59 32.0 °F /  0 °C 24.6 °F /  -4.1 °C 29.83in /  1010hPa NE 3.0mph /  4.8km/h 7.0mph /  11.3km/h 74% 0.00in /  0mm
04:04 32.1 °F /  0.1 °C 24.4 °F /  -4.2 °C 29.82in /  1009.7hPa NE 4.0mph /  6.4km/h 9.0mph /  14.5km/h 73% 0.00in /  0mm
04:09 32.2 °F /  0.1 °C 24.5 °F /  -4.2 °C 29.82in /  1009.7hPa NE 5.0mph /  8km/h 9.0mph /  14.5km/h 73% 0.00in /  0mm
04:14 32.3 °F /  0.2 °C 24.6 °F /  -4.1 °C 29.82in /  1009.7hPa NE 3.0mph /  4.8km/h 10.0mph /  16.1km/h 73% 0.00in /  0mm
04:19 32.4 °F /  0.2 °C 24.7 °F /  -4.1 °C 29.82in /  1009.7hPa NE 5.0mph /  8km/h 10.0mph /  16.1km/h 73% 0.00in /  0mm
04:24 32.5 °F /  0.3 °C 24.8 °F /  -4 °C 29.82in /  1009.7hPa NNE 3.0mph /  4.8km/h 10.0mph /  16.1km/h 73% 0.00in /  0mm
04:29 32.6 °F /  0.3 °C 24.9 °F /  -3.9 °C 29.82in /  1009.7hPa NE 4.0mph /  6.4km/h 8.0mph /  12.9km/h 73% 0.00in /  0mm
04:34 32.6 °F /  0.3 °C 24.9 °F /  -3.9 °C 29.81in /  1009.4hPa NNE 4.0mph /  6.4km/h 11.0mph /  17.7km/h 73% 0.00in /  0mm
04:39 32.5 °F /  0.3 °C 25.1 °F /  -3.8 °C 29.81in /  1009.4hPa NE 5.0mph /  8km/h 9.0mph /  14.5km/h 74% 0.00in /  0mm
04:44 32.3 °F /  0.2 °C 24.9 °F /  -3.9 °C 29.82in /  1009.7hPa NNE 3.0mph /  4.8km/h 7.0mph /  11.3km/h 74% 0.00in /  0mm
04:49 32.2 °F /  0.1 °C 24.8 °F /  -4 °C 29.82in /  1009.7hPa NE 3.0mph /  4.8km/h 9.0mph /  14.5km/h 74% 0.00in /  0mm
04:54 32.2 °F /  0.1 °C 24.8 °F /  -4 °C 29.82in /  1009.7hPa NE 5.0mph /  8km/h 11.0mph /  17.7km/h 74% 0.00in /  0mm
04:59 32.1 °F /  0.1 °C 24.7 °F /  -4.1 °C 29.82in /  1009.7hPa NE 5.0mph /  8km/h 11.0mph /  17.7km/h 74% 0.00in /  0mm
05:04 32.1 °F /  0.1 °C 25.1 °F /  -3.8 °C 29.82in /  1009.7hPa NE 4.0mph /  6.4km/h 8.0mph /  12.9km/h 75% 0.00in /  0mm
05:09 31.9 °F /  -0.1 °C 24.9 °F /  -3.9 °C 29.82in /  1009.7hPa NE 5.0mph /  8km/h 11.0mph /  17.7km/h 75% 0.00in /  0mm
05:14 31.9 °F /  -0.1 °C 24.9 °F /  -3.9 °C 29.81in /  1009.4hPa NE 6.0mph /  9.7km/h 11.0mph /  17.7km/h 75% 0.00in /  0mm
05:19 31.8 °F /  -0.1 °C 25.1 °F /  -3.8 °C 29.81in /  1009.4hPa NE 4.0mph /  6.4km/h 12.0mph /  19.3km/h 76% 0.00in /  0mm
05:24 31.8 °F /  -0.1 °C 25.4 °F /  -3.7 °C 29.81in /  1009.4hPa NE 9.0mph /  14.5km/h 12.0mph /  19.3km/h 77% 0.00in /  0mm
05:29 31.7 °F /  -0.2 °C 25.3 °F /  -3.7 °C 29.80in /  1009hPa NE 6.0mph /  9.7km/h 12.0mph /  19.3km/h 77% 0.00in /  0mm
05:34 31.7 °F /  -0.2 °C 25.3 °F /  -3.7 °C 29.81in /  1009.4hPa NE 6.0mph /  9.7km/h 12.0mph /  19.3km/h 77% 0.00in /  0mm
05:39 31.7 °F /  -0.2 °C 25.6 °F /  -3.6 °C 29.81in /  1009.4hPa ENE 2.0mph /  3.2km/h 10.0mph /  16.1km/h 78% 0.00in /  0mm
05:44 31.7 °F /  -0.2 °C 25.3 °F /  -3.7 °C 29.80in /  1009hPa NE 6.0mph /  9.7km/h 8.0mph /  12.9km/h 77% 0.00in /  0mm
05:49 31.7 °F /  -0.2 °C 25.3 °F /  -3.7 °C 29.80in /  1009hPa ENE 7.0mph /  11.3km/h 13.0mph /  20.9km/h 77% 0.00in /  0mm
05:54 31.7 °F /  -0.2 °C 25.3 °F /  -3.7 °C 29.79in /  1008.7hPa ENE 8.0mph /  12.9km/h 11.0mph /  17.7km/h 77% 0.00in /  0mm
05:59 31.7 °F /  -0.2 °C 25.3 °F /  -3.7 °C 29.80in /  1009hPa NE 6.0mph /  9.7km/h 11.0mph /  17.7km/h 77% 0.00in /  0mm
06:04 31.8 °F /  -0.1 °C 25.4 °F /  -3.7 °C 29.80in /  1009hPa NE 5.0mph /  8km/h 11.0mph /  17.7km/h 77% 0.00in /  0mm
06:09 31.8 °F /  -0.1 °C 25.4 °F /  -3.7 °C 29.80in /  1009hPa NE 5.0mph /  8km/h 11.0mph /  17.7km/h 77% 0.00in /  0mm
06:14 31.8 °F /  -0.1 °C 25.4 °F /  -3.7 °C 29.80in /  1009hPa ENE 5.0mph /  8km/h 13.0mph /  20.9km/h 77% 0.00in /  0mm
06:19 31.8 °F /  -0.1 °C 25.1 °F /  -3.8 °C 29.80in /  1009hPa NE 3.0mph /  4.8km/h 12.0mph /  19.3km/h 76% 0.00in /  0mm
06:24 31.8 °F /  -0.1 °C 25.1 °F /  -3.8 °C 29.80in /  1009hPa NNE 7.0mph /  11.3km/h 12.0mph /  19.3km/h 76% 0.00in /  0mm
06:29 31.9 °F /  -0.1 °C 25.5 °F /  -3.6 °C 29.80in /  1009hPa ENE 4.0mph /  6.4km/h 10.0mph /  16.1km/h 77% 0.00in /  0mm
06:34 32.0 °F /  0 °C 25.3 °F /  -3.7 °C 29.80in /  1009hPa ENE 4.0mph /  6.4km/h 10.0mph /  16.1km/h 76% 0.00in /  0mm
06:39 32.0 °F /  0 °C 25.6 °F /  -3.6 °C 29.80in /  1009hPa ENE 4.0mph /  6.4km/h 9.0mph /  14.5km/h 77% 0.00in /  0mm
06:44 32.1 °F /  0.1 °C 25.7 °F /  -3.5 °C 29.80in /  1009hPa ENE 4.0mph /  6.4km/h 9.0mph /  14.5km/h 77% 0.00in /  0mm
06:49 32.2 °F /  0.1 °C 25.8 °F /  -3.4 °C 29.79in /  1008.7hPa NE 4.0mph /  6.4km/h 11.0mph /  17.7km/h 77% 0.00in /  0mm
06:54 32.3 °F /  0.2 °C 25.9 °F /  -3.4 °C 29.79in /  1008.7hPa NE 5.0mph /  8km/h 11.0mph /  17.7km/h 77% 0.00in /  0mm
06:59 32.3 °F /  0.2 °C 25.6 °F /  -3.6 °C 29.79in /  1008.7hPa ENE 5.0mph /  8km/h 13.0mph /  20.9km/h 76% 0.00in /  0mm
07:04 32.4 °F /  0.2 °C 25.7 °F /  -3.5 °C 29.79in /  1008.7hPa NNE 5.0mph /  8km/h 9.0mph /  14.5km/h 76% 0.00in /  0mm
07:09 32.5 °F /  0.3 °C 25.8 °F /  -3.4 °C 29.79in /  1008.7hPa ENE 5.0mph /  8km/h 11.0mph /  17.7km/h 76% 0.00in /  0mm
07:14 32.4 °F /  0.2 °C 25.4 °F /  -3.7 °C 29.79in /  1008.7hPa ENE 6.0mph /  9.7km/h 11.0mph /  17.7km/h 75% 0.00in /  0mm
07:19 32.5 °F /  0.3 °C 25.5 °F /  -3.6 °C 29.79in /  1008.7hPa NE 3.0mph /  4.8km/h 8.0mph /  12.9km/h 75% 0.00in /  0mm
07:24 32.5 °F /  0.3 °C 25.5 °F /  -3.6 °C 29.78in /  1008.4hPa NE 7.0mph /  11.3km/h 11.0mph /  17.7km/h 75% 0.00in /  0mm
07:29 32.5 °F /  0.3 °C 25.5 °F /  -3.6 °C 29.79in /  1008.7hPa ENE 5.0mph /  8km/h 11.0mph /  17.7km/h 75% 0.00in /  0mm
07:34 32.6 °F /  0.3 °C 25.6 °F /  -3.6 °C 29.79in /  1008.7hPa NE 4.0mph /  6.4km/h 8.0mph /  12.9km/h 75% 0.00in /  0mm
07:39 32.7 °F /  0.4 °C 25.6 °F /  -3.6 °C 29.78in /  1008.4hPa East 3.0mph /  4.8km/h 10.0mph /  16.1km/h 75% 0.00in /  0mm
07:44 32.7 °F /  0.4 °C 25.3 °F /  -3.7 °C 29.78in /  1008.4hPa ENE 5.0mph /  8km/h 11.0mph /  17.7km/h 74% 0.00in /  0mm
07:49 32.7 °F /  0.4 °C 25.3 °F /  -3.7 °C 29.78in /  1008.4hPa ENE 6.0mph /  9.7km/h 13.0mph /  20.9km/h 74% 0.00in /  0mm
07:54 32.7 °F /  0.4 °C 25.3 °F /  -3.7 °C 29.77in /  1008hPa ENE 5.0mph /  8km/h 13.0mph /  20.9km/h 74% 0.00in /  0mm
07:59 32.8 °F /  0.4 °C 25.4 °F /  -3.7 °C 29.77in /  1008hPa ENE 5.0mph /  8km/h 11.0mph /  17.7km/h 74% 0.00in /  0mm
08:04 32.9 °F /  0.5 °C 25.8 °F /  -3.4 °C 29.77in /  1008hPa NE 4.0mph /  6.4km/h 10.0mph /  16.1km/h 75% 0.00in /  0mm
08:09 32.9 °F /  0.5 °C 25.8 °F /  -3.4 °C 29.78in /  1008.4hPa NE 3.0mph /  4.8km/h 11.0mph /  17.7km/h 75% 0.00in /  0mm
08:14 33.0 °F /  0.6 °C 25.9 °F /  -3.4 °C 29.78in /  1008.4hPa ENE 2.0mph /  3.2km/h 6.0mph /  9.7km/h 75% 0.00in /  0mm
08:19 33.0 °F /  0.6 °C 25.9 °F /  -3.4 °C 29.78in /  1008.4hPa NE 4.0mph /  6.4km/h 11.0mph /  17.7km/h 75% 0.00in /  0mm
08:24 33.0 °F /  0.6 °C 25.9 °F /  -3.4 °C 29.78in /  1008.4hPa NE 5.0mph /  8km/h 11.0mph /  17.7km/h 75% 0.00in /  0mm
08:29 33.0 °F /  0.6 °C 25.9 °F /  -3.4 °C 29.78in /  1008.4hPa NE 6.0mph /  9.7km/h 12.0mph /  19.3km/h 75% 0.00in /  0mm
08:34 33.0 °F /  0.6 °C 25.6 °F /  -3.6 °C 29.77in /  1008hPa NE 7.0mph /  11.3km/h 13.0mph /  20.9km/h 74% 0.00in /  0mm
08:39 33.0 °F /  0.6 °C 25.9 °F /  -3.4 °C 29.77in /  1008hPa NE 7.0mph /  11.3km/h 13.0mph /  20.9km/h 75% 0.00in /  0mm
08:44 33.0 °F /  0.6 °C 25.6 °F /  -3.6 °C 29.77in /  1008hPa NE 3.0mph /  4.8km/h 11.0mph /  17.7km/h 74% 0.00in /  0mm
08:49 33.0 °F /  0.6 °C 25.6 °F /  -3.6 °C 29.76in /  1007.7hPa NE 9.0mph /  14.5km/h 14.0mph /  22.5km/h 74% 0.00in /  0mm
08:54 33.1 °F /  0.6 °C 25.7 °F /  -3.5 °C 29.76in /  1007.7hPa ENE 4.0mph /  6.4km/h 10.0mph /  16.1km/h 74% 0.00in /  0mm
08:59 33.1 °F /  0.6 °C 26.0 °F /  -3.3 °C 29.76in /  1007.7hPa NE 5.0mph /  8km/h 11.0mph /  17.7km/h 75% 0.00in /  0mm
09:04 33.0 °F /  0.6 °C 25.6 °F /  -3.6 °C 29.75in /  1007.3hPa East 2.0mph /  3.2km/h 11.0mph /  17.7km/h 74% 0.00in /  0mm
09:09 33.2 °F /  0.7 °C 26.1 °F /  -3.3 °C 29.75in /  1007.3hPa NNE 8.0mph /  12.9km/h 12.0mph /  19.3km/h 75% 0.00in /  0mm
09:14 33.1 °F /  0.6 °C 26.0 °F /  -3.3 °C 29.75in /  1007.3hPa NE 5.0mph /  8km/h 11.0mph /  17.7km/h 75% 0.00in /  0mm
09:19 33.1 °F /  0.6 °C 26.0 °F /  -3.3 °C 29.75in /  1007.3hPa NE 6.0mph /  9.7km/h 11.0mph /  17.7km/h 75% 0.00in /  0mm
09:24 33.1 °F /  0.6 °C 26.0 °F /  -3.3 °C 29.74in /  1007hPa ENE 6.0mph /  9.7km/h 13.0mph /  20.9km/h 75% 0.00in /  0mm
09:29 33.2 °F /  0.7 °C 26.1 °F /  -3.3 °C 29.74in /  1007hPa East 10.0mph /  16.1km/h 11.0mph /  17.7km/h 75% 0.00in /  0mm
09:34 33.2 °F /  0.7 °C 26.1 °F /  -3.3 °C 29.73in /  1006.7hPa ENE 4.0mph /  6.4km/h 13.0mph /  20.9km/h 75% 0.00in /  0mm
09:39 33.2 °F /  0.7 °C 26.1 °F /  -3.3 °C 29.73in /  1006.7hPa ESE 2.0mph /  3.2km/h 8.0mph /  12.9km/h 75% 0.00in /  0mm
09:44 33.1 °F /  0.6 °C 26.4 °F /  -3.1 °C 29.72in /  1006.3hPa ENE 7.0mph /  11.3km/h 11.0mph /  17.7km/h 76% 0.00in /  0mm
09:49 33.1 °F /  0.6 °C 26.7 °F /  -2.9 °C 29.72in /  1006.3hPa ENE 8.0mph /  12.9km/h 12.0mph /  19.3km/h 77% 0.00in /  0mm
09:54 33.0 °F /  0.6 °C 26.6 °F /  -3 °C 29.71in /  1006hPa ENE 5.0mph /  8km/h 12.0mph /  19.3km/h 77% 0.00in /  0mm
09:59 33.0 °F /  0.6 °C 26.6 °F /  -3 °C 29.71in /  1006hPa ENE 5.0mph /  8km/h 11.0mph /  17.7km/h 77% 0.00in /  0mm
10:04 33.1 °F /  0.6 °C 27.0 °F /  -2.8 °C 29.71in /  1006hPa ENE 5.0mph /  8km/h 10.0mph /  16.1km/h 78% 0.00in /  0mm
10:09 33.2 °F /  0.7 °C 27.1 °F /  -2.7 °C 29.71in /  1006hPa ESE 5.0mph /  8km/h 10.0mph /  16.1km/h 78% 0.00in /  0mm
10:14 33.2 °F /  0.7 °C 27.4 °F /  -2.6 °C 29.71in /  1006hPa NNE 2.0mph /  3.2km/h 6.0mph /  9.7km/h 79% 0.00in /  0mm
10:19 33.0 °F /  0.6 °C 27.5 °F /  -2.5 °C 29.71in /  1006hPa NE 5.0mph /  8km/h 7.0mph /  11.3km/h 80% 0.00in /  0mm
10:24 32.9 °F /  0.5 °C 27.4 °F /  -2.6 °C 29.70in /  1005.6hPa NE 5.0mph /  8km/h 13.0mph /  20.9km/h 80% 0.00in /  0mm
10:29 32.8 °F /  0.4 °C 27.6 °F /  -2.4 °C 29.70in /  1005.6hPa NE 6.0mph /  9.7km/h 13.0mph /  20.9km/h 81% 0.01in /  0.25mm
10:34 32.8 °F /  0.4 °C 27.9 °F /  -2.3 °C 29.70in /  1005.6hPa NE 6.0mph /  9.7km/h 13.0mph /  20.9km/h 82% 0.01in /  0.25mm
10:39 32.8 °F /  0.4 °C 27.9 °F /  -2.3 °C 29.70in /  1005.6hPa NE 6.0mph /  9.7km/h 12.0mph /  19.3km/h 82% 0.01in /  0.25mm
10:44 32.8 °F /  0.4 °C 27.9 °F /  -2.3 °C 29.70in /  1005.6hPa NNE 5.0mph /  8km/h 10.0mph /  16.1km/h 82% 0.01in /  0.25mm
10:49 32.8 °F /  0.4 °C 28.2 °F /  -2.1 °C 29.70in /  1005.6hPa NE 7.0mph /  11.3km/h 10.0mph /  16.1km/h 83% 0.01in /  0.25mm
10:54 32.8 °F /  0.4 °C 28.2 °F /  -2.1 °C 29.69in /  1005.3hPa NNE 3.0mph /  4.8km/h 10.0mph /  16.1km/h 83% 0.01in /  0.25mm
10:59 32.7 °F /  0.4 °C 28.1 °F /  -2.2 °C 29.69in /  1005.3hPa NE 6.0mph /  9.7km/h 11.0mph /  17.7km/h 83% 0.01in /  0.25mm
11:04 32.7 °F /  0.4 °C 28.4 °F /  -2 °C 29.69in /  1005.3hPa NE 6.0mph /  9.7km/h 11.0mph /  17.7km/h 84% 0.02in /  0.51mm
11:09 32.6 °F /  0.3 °C 28.3 °F /  -2.1 °C 29.68in /  1005hPa NNE 5.0mph /  8km/h 13.0mph /  20.9km/h 84% 0.03in /  0.76mm
11:14 32.4 °F /  0.2 °C 28.4 °F /  -2 °C 29.68in /  1005hPa NE 6.0mph /  9.7km/h 12.0mph /  19.3km/h 85% 0.04in /  1.02mm
11:19 32.4 °F /  0.2 °C 28.7 °F /  -1.8 °C 29.67in /  1004.6hPa ENE 4.0mph /  6.4km/h 11.0mph /  17.7km/h 86% 0.04in /  1.02mm
11:24 32.4 °F /  0.2 °C 28.7 °F /  -1.8 °C 29.67in /  1004.6hPa ENE 8.0mph /  12.9km/h 14.0mph /  22.5km/h 86% 0.05in /  1.27mm
11:29 32.4 °F /  0.2 °C 29.0 °F /  -1.7 °C 29.67in /  1004.6hPa ENE 5.0mph /  8km/h 14.0mph /  22.5km/h 87% 0.04in /  1.02mm
11:34 32.5 °F /  0.3 °C 29.1 °F /  -1.6 °C 29.66in /  1004.3hPa ENE 5.0mph /  8km/h 11.0mph /  17.7km/h 87% 0.05in /  1.27mm
11:39 32.6 °F /  0.3 °C 29.4 °F /  -1.4 °C 29.66in /  1004.3hPa ENE 5.0mph /  8km/h 11.0mph /  17.7km/h 88% 0.05in /  1.27mm
11:44 32.6 °F /  0.3 °C 29.4 °F /  -1.4 °C 29.66in /  1004.3hPa ENE 6.0mph /  9.7km/h 11.0mph /  17.7km/h 88% 0.06in /  1.52mm
11:49 32.7 °F /  0.4 °C 29.5 °F /  -1.4 °C 29.65in /  1003.9hPa ENE 3.0mph /  4.8km/h 9.0mph /  14.5km/h 88% 0.07in /  1.78mm
11:54 32.6 °F /  0.3 °C 29.4 °F /  -1.4 °C 29.65in /  1003.9hPa NE 2.0mph /  3.2km/h 8.0mph /  12.9km/h 88% 0.07in /  1.78mm
11:59 32.6 °F /  0.3 °C 29.7 °F /  -1.3 °C 29.64in /  1003.6hPa NE 4.0mph /  6.4km/h 9.0mph /  14.5km/h 89% 0.07in /  1.78mm
12:04 32.7 °F /  0.4 °C 29.8 °F /  -1.2 °C 29.64in /  1003.6hPa NE 4.0mph /  6.4km/h 9.0mph /  14.5km/h 89% 0.07in /  1.78mm
12:09 32.8 °F /  0.4 °C 29.9 °F /  -1.2 °C 29.63in /  1003.3hPa East 7.0mph /  11.3km/h 8.0mph /  12.9km/h 89% 0.06in /  1.52mm
12:14 32.8 °F /  0.4 °C 29.9 °F /  -1.2 °C 29.63in /  1003.3hPa ENE 2.0mph /  3.2km/h 8.0mph /  12.9km/h 89% 0.05in /  1.27mm
12:19 32.8 °F /  0.4 °C 30.2 °F /  -1 °C 29.62in /  1002.9hPa NE 2.0mph /  3.2km/h 9.0mph /  14.5km/h 90% 0.06in /  1.52mm
12:24 33.0 °F /  0.6 °C 30.4 °F /  -0.9 °C 29.62in /  1002.9hPa NE 2.0mph /  3.2km/h 8.0mph /  12.9km/h 90% 0.05in /  1.27mm
12:29 33.1 °F /  0.6 °C 30.5 °F /  -0.8 °C 29.62in /  1002.9hPa ENE 3.0mph /  4.8km/h 8.0mph /  12.9km/h 90% 0.06in /  1.52mm
12:34 33.2 °F /  0.7 °C 30.6 °F /  -0.8 °C 29.61in /  1002.6hPa ENE 4.0mph /  6.4km/h 8.0mph /  12.9km/h 90% 0.06in /  1.52mm
12:39 33.3 °F /  0.7 °C 30.7 °F /  -0.7 °C 29.61in /  1002.6hPa NE 5.0mph /  8km/h 9.0mph /  14.5km/h 90% 0.06in /  1.52mm
12:44 33.3 °F /  0.7 °C 30.7 °F /  -0.7 °C 29.60in /  1002.3hPa ENE 5.0mph /  8km/h 9.0mph /  14.5km/h 90% 0.06in /  1.52mm
12:49 33.4 °F /  0.8 °C 31.1 °F /  -0.5 °C 29.60in /  1002.3hPa NE 4.0mph /  6.4km/h 9.0mph /  14.5km/h 91% 0.05in /  1.27mm
12:54 33.4 °F /  0.8 °C 31.1 °F /  -0.5 °C 29.59in /  1001.9hPa NE 4.0mph /  6.4km/h 9.0mph /  14.5km/h 91% 0.06in /  1.52mm
12:59 33.4 °F /  0.8 °C 31.1 °F /  -0.5 °C 29.58in /  1001.6hPa NE 4.0mph /  6.4km/h 8.0mph /  12.9km/h 91% 0.07in /  1.78mm
13:04 33.4 °F /  0.8 °C 31.1 °F /  -0.5 °C 29.58in /  1001.6hPa NE 5.0mph /  8km/h 9.0mph /  14.5km/h 91% 0.06in /  1.52mm
13:09 33.4 °F /  0.8 °C 31.1 °F /  -0.5 °C 29.57in /  1001.2hPa NE 7.0mph /  11.3km/h 10.0mph /  16.1km/h 91% 0.07in /  1.78mm
13:14 33.4 °F /  0.8 °C 31.1 °F /  -0.5 °C 29.56in /  1000.9hPa NE 7.0mph /  11.3km/h 10.0mph /  16.1km/h 91% 0.08in /  2.03mm
13:19 33.4 °F /  0.8 °C 31.1 °F /  -0.5 °C 29.56in /  1000.9hPa East 7.0mph /  11.3km/h 9.0mph /  14.5km/h 91% 0.08in /  2.03mm
13:24 33.5 °F /  0.8 °C 31.2 °F /  -0.4 °C 29.55in /  1000.6hPa ENE 2.0mph /  3.2km/h 11.0mph /  17.7km/h 91% 0.09in /  2.29mm
13:29 33.6 °F /  0.9 °C 31.5 °F /  -0.3 °C 29.54in /  1000.2hPa NE 7.0mph /  11.3km/h 8.0mph /  12.9km/h 92% 0.09in /  2.29mm
13:34 33.8 °F /  1 °C 31.7 °F /  -0.2 °C 29.53in /  999.9hPa NE 2.0mph /  3.2km/h 8.0mph /  12.9km/h 92% 0.09in /  2.29mm
13:39 34.0 °F /  1.1 °C 31.9 °F /  -0.1 °C 29.53in /  999.9hPa NE 4.0mph /  6.4km/h 8.0mph /  12.9km/h 92% 0.09in /  2.29mm
13:44 34.1 °F /  1.2 °C 32.0 °F /  0 °C 29.52in /  999.5hPa ENE 5.0mph /  8km/h 8.0mph /  12.9km/h 92% 0.08in /  2.03mm
13:49 34.3 °F /  1.3 °C 32.2 °F /  0.1 °C 29.51in /  999.2hPa ENE 4.0mph /  6.4km/h 10.0mph /  16.1km/h 92% 0.09in /  2.29mm
13:54 34.4 °F /  1.3 °C 32.3 °F /  0.2 °C 29.51in /  999.2hPa ENE 4.0mph /  6.4km/h 10.0mph /  16.1km/h 92% 0.08in /  2.03mm
13:59 34.7 °F /  1.5 °C 32.6 °F /  0.3 °C 29.50in /  998.9hPa ENE 4.0mph /  6.4km/h 8.0mph /  12.9km/h 92% 0.07in /  1.78mm
14:04 34.9 °F /  1.6 °C 32.8 °F /  0.4 °C 29.50in /  998.9hPa ENE 4.0mph /  6.4km/h 8.0mph /  12.9km/h 92% 0.07in /  1.78mm
14:09 35.1 °F /  1.7 °C 33.0 °F /  0.6 °C 29.50in /  998.9hPa ENE 3.0mph /  4.8km/h 6.0mph /  9.7km/h 92% 0.06in /  1.52mm
14:14 35.3 °F /  1.8 °C 33.2 °F /  0.7 °C 29.50in /  998.9hPa NE 3.0mph /  4.8km/h 8.0mph /  12.9km/h 92% 0.05in /  1.27mm
14:19 35.3 °F /  1.8 °C 33.2 °F /  0.7 °C 29.48in /  998.2hPa NE 5.0mph /  8km/h 7.0mph /  11.3km/h 92% 0.04in /  1.02mm
14:24 35.5 °F /  1.9 °C 33.4 °F /  0.8 °C 29.49in /  998.5hPa ENE 2.0mph /  3.2km/h 8.0mph /  12.9km/h 92% 0.04in /  1.02mm
14:29 35.7 °F /  2.1 °C 33.9 °F /  1.1 °C 29.48in /  998.2hPa NE 5.0mph /  8km/h 7.0mph /  11.3km/h 93% 0.03in /  0.76mm
14:34 35.6 °F /  2 °C 33.5 °F /  0.8 °C 29.48in /  998.2hPa NNE 4.0mph /  6.4km/h 7.0mph /  11.3km/h 92% 0.02in /  0.51mm
14:39 35.4 °F /  1.9 °C 33.3 °F /  0.7 °C 29.48in /  998.2hPa East 5.0mph /  8km/h 7.0mph /  11.3km/h 92% 0.02in /  0.51mm
14:44 35.6 °F /  2 °C 33.5 °F /  0.8 °C 29.47in /  997.9hPa ENE 3.0mph /  4.8km/h 7.0mph /  11.3km/h 92% 0.02in /  0.51mm
14:49 35.6 °F /  2 °C 33.5 °F /  0.8 °C 29.46in /  997.5hPa ENE 3.0mph /  4.8km/h 10.0mph /  16.1km/h 92% 0.01in /  0.25mm
14:54 35.6 °F /  2 °C 33.5 °F /  0.8 °C 29.46in /  997.5hPa NE 5.0mph /  8km/h 10.0mph /  16.1km/h 92% 0.01in /  0.25mm
14:59 35.6 °F /  2 °C 33.5 °F /  0.8 °C 29.45in /  997.2hPa NE 4.0mph /  6.4km/h 10.0mph /  16.1km/h 92% 0.01in /  0.25mm
15:04 35.6 °F /  2 °C 33.5 °F /  0.8 °C 29.45in /  997.2hPa NE 4.0mph /  6.4km/h 8.0mph /  12.9km/h 92% 0.02in /  0.51mm
15:09 35.6 °F /  2 °C 33.8 °F /  1 °C 29.44in /  996.8hPa NE 4.0mph /  6.4km/h 8.0mph /  12.9km/h 93% 0.04in /  1.02mm
15:14 35.7 °F /  2.1 °C 33.9 °F /  1.1 °C 29.44in /  996.8hPa NE 4.0mph /  6.4km/h 7.0mph /  11.3km/h 93% 0.05in /  1.27mm
15:19 35.8 °F /  2.1 °C 34.0 °F /  1.1 °C 29.43in /  996.5hPa East 6.0mph /  9.7km/h 8.0mph /  12.9km/h 93% 0.05in /  1.27mm
15:24 35.9 °F /  2.2 °C 34.1 °F /  1.2 °C 29.43in /  996.5hPa NE 2.0mph /  3.2km/h 8.0mph /  12.9km/h 93% 0.04in /  1.02mm
15:29 36.0 °F /  2.2 °C 34.2 °F /  1.2 °C 29.43in /  996.5hPa NE 3.0mph /  4.8km/h 8.0mph /  12.9km/h 93% 0.05in /  1.27mm
15:34 36.2 °F /  2.3 °C 34.4 °F /  1.3 °C 29.43in /  996.5hPa NE 3.0mph /  4.8km/h 6.0mph /  9.7km/h 93% 0.05in /  1.27mm
15:39 36.4 °F /  2.4 °C 34.6 °F /  1.4 °C 29.43in /  996.5hPa NE 2.0mph /  3.2km/h 5.0mph /  8km/h 93% 0.05in /  1.27mm
15:44 36.7 °F /  2.6 °C 34.9 °F /  1.6 °C 29.43in /  996.5hPa Calm   5.0mph /  8km/h 93% 0.05in /  1.27mm
15:49 36.8 °F /  2.7 °C 35.0 °F /  1.7 °C 29.43in /  996.5hPa NE 3.0mph /  4.8km/h 3.0mph /  4.8km/h 93% 0.05in /  1.27mm
15:54 37.0 °F /  2.8 °C 35.4 °F /  1.9 °C 29.42in /  996.2hPa Calm   5.0mph /  8km/h 94% 0.06in /  1.52mm
15:59 36.9 °F /  2.7 °C 35.1 °F /  1.7 °C 29.42in /  996.2hPa NE 2.0mph /  3.2km/h 6.0mph /  9.7km/h 93% 0.07in /  1.78mm
16:04 36.8 °F /  2.7 °C 35.0 °F /  1.7 °C 29.42in /  996.2hPa NE 2.0mph /  3.2km/h 6.0mph /  9.7km/h 93% 0.07in /  1.78mm
16:09 36.8 °F /  2.7 °C 35.2 °F /  1.8 °C 29.42in /  996.2hPa NE 2.0mph /  3.2km/h 4.0mph /  6.4km/h 94% 0.05in /  1.27mm
16:14 37.0 °F /  2.8 °C 35.4 °F /  1.9 °C 29.41in /  995.8hPa NE 2.0mph /  3.2km/h 3.0mph /  4.8km/h 94% 0.05in /  1.27mm
16:19 37.1 °F /  2.8 °C 35.5 °F /  1.9 °C 29.41in /  995.8hPa ENE 1.0mph /  1.6km/h 3.0mph /  4.8km/h 94% 0.06in /  1.52mm
16:24 37.4 °F /  3 °C 35.8 °F /  2.1 °C 29.40in /  995.5hPa ENE 1.0mph /  1.6km/h 2.0mph /  3.2km/h 94% 0.06in /  1.52mm
16:29 37.7 °F /  3.2 °C 36.1 °F /  2.3 °C 29.40in /  995.5hPa ENE 2.0mph /  3.2km/h 3.0mph /  4.8km/h 94% 0.06in /  1.52mm
16:34 38.0 °F /  3.3 °C 36.4 °F /  2.4 °C 29.40in /  995.5hPa ENE 1.0mph /  1.6km/h 3.0mph /  4.8km/h 94% 0.07in /  1.78mm
16:39 38.3 °F /  3.5 °C 36.7 °F /  2.6 °C 29.39in /  995.1hPa ENE 1.0mph /  1.6km/h 2.0mph /  3.2km/h 94% 0.08in /  2.03mm
16:44 38.6 °F /  3.7 °C 37.0 °F /  2.8 °C 29.39in /  995.1hPa Calm   2.0mph /  3.2km/h 94% 0.09in /  2.29mm
16:49 38.8 °F /  3.8 °C 37.2 °F /  2.9 °C 29.39in /  995.1hPa Calm     94% 0.09in /  2.29mm
16:54 39.3 °F /  4.1 °C 38.0 °F /  3.3 °C 29.38in /  994.8hPa Calm     95% 0.09in /  2.29mm
16:59 39.7 °F /  4.3 °C 38.4 °F /  3.6 °C 29.38in /  994.8hPa Calm     95% 0.09in /  2.29mm
17:04 40.6 °F /  4.8 °C 39.3 °F /  4.1 °C 29.38in /  994.8hPa SSE 1.0mph /  1.6km/h 3.0mph /  4.8km/h 95% 0.08in /  2.03mm
17:09 41.6 °F /  5.3 °C 40.3 °F /  4.6 °C 29.38in /  994.8hPa SSE 1.0mph /  1.6km/h 4.0mph /  6.4km/h 95% 0.09in /  2.29mm
17:14 43.5 °F /  6.4 °C 42.4 °F /  5.8 °C 29.37in /  994.5hPa South 2.0mph /  3.2km/h 5.0mph /  8km/h 96% 0.08in /  2.03mm
17:19 45.3 °F /  7.4 °C 44.2 °F /  6.8 °C 29.37in /  994.5hPa South 3.0mph /  4.8km/h 7.0mph /  11.3km/h 96% 0.08in /  2.03mm
17:24 46.7 °F /  8.2 °C 45.6 °F /  7.6 °C 29.36in /  994.1hPa South 4.0mph /  6.4km/h 9.0mph /  14.5km/h 96% 0.08in /  2.03mm
17:29 48.0 °F /  8.9 °C 46.9 °F /  8.3 °C 29.36in /  994.1hPa South 5.0mph /  8km/h 11.0mph /  17.7km/h 96% 0.08in /  2.03mm
17:34 48.7 °F /  9.3 °C 47.6 °F /  8.7 °C 29.36in /  994.1hPa SSW 5.0mph /  8km/h 11.0mph /  17.7km/h 96% 0.08in /  2.03mm
17:39 49.1 °F /  9.5 °C 48.0 °F /  8.9 °C 29.36in /  994.1hPa SSW 6.0mph /  9.7km/h 15.0mph /  24.1km/h 96% 0.07in /  1.78mm
17:44 49.4 °F /  9.7 °C 48.3 °F /  9.1 °C 29.36in /  994.1hPa SW 12.0mph /  19.3km/h 13.0mph /  20.9km/h 96% 0.07in /  1.78mm
17:49 49.7 °F /  9.8 °C 48.3 °F /  9.1 °C 29.36in /  994.1hPa WSW 11.0mph /  17.7km/h 15.0mph /  24.1km/h 95% 0.08in /  2.03mm
17:54 49.9 °F /  9.9 °C 48.5 °F /  9.2 °C 29.35in /  993.8hPa SSE 8.0mph /  12.9km/h 15.0mph /  24.1km/h 95% 0.08in /  2.03mm
17:59 50.0 °F /  10 °C 48.6 °F /  9.2 °C 29.35in /  993.8hPa SSW 7.0mph /  11.3km/h 12.0mph /  19.3km/h 95% 0.07in /  1.78mm
18:04 50.1 °F /  10.1 °C 48.4 °F /  9.1 °C 29.35in /  993.8hPa South 5.0mph /  8km/h 11.0mph /  17.7km/h 94% 0.07in /  1.78mm
18:09 50.3 °F /  10.2 °C 48.6 °F /  9.2 °C 29.35in /  993.8hPa South 6.0mph /  9.7km/h 13.0mph /  20.9km/h 94% 0.06in /  1.52mm
18:14 50.5 °F /  10.3 °C 48.8 °F /  9.3 °C 29.35in /  993.8hPa South 8.0mph /  12.9km/h 14.0mph /  22.5km/h 94% 0.07in /  1.78mm
18:19 50.6 °F /  10.3 °C 48.9 °F /  9.4 °C 29.35in /  993.8hPa SSW 7.0mph /  11.3km/h 14.0mph /  22.5km/h 94% 0.06in /  1.52mm
18:24 50.7 °F /  10.4 °C 49.0 °F /  9.4 °C 29.35in /  993.8hPa SSW 7.0mph /  11.3km/h 14.0mph /  22.5km/h 94% 0.06in /  1.52mm
18:29 50.9 °F /  10.5 °C 48.9 °F /  9.4 °C 29.35in /  993.8hPa SSW 8.0mph /  12.9km/h 17.0mph /  27.4km/h 93% 0.05in /  1.27mm
18:34 51.1 °F /  10.6 °C 49.1 °F /  9.5 °C 29.34in /  993.5hPa SSW 8.0mph /  12.9km/h 17.0mph /  27.4km/h 93% 0.04in /  1.02mm
18:39 51.3 °F /  10.7 °C 49.3 °F /  9.6 °C 29.34in /  993.5hPa SSW 8.0mph /  12.9km/h 18.0mph /  29km/h 93% 0.04in /  1.02mm
18:44 51.6 °F /  10.9 °C 49.4 °F /  9.7 °C 29.34in /  993.5hPa SW 8.0mph /  12.9km/h 18.0mph /  29km/h 92% 0.04in /  1.02mm
18:49 51.8 °F /  11 °C 49.3 °F /  9.6 °C 29.34in /  993.5hPa SSW 6.0mph /  9.7km/h 14.0mph /  22.5km/h 91% 0.03in /  0.76mm
18:54 52.1 °F /  11.2 °C 49.6 °F /  9.8 °C 29.34in /  993.5hPa SSW 8.0mph /  12.9km/h 18.0mph /  29km/h 91% 0.02in /  0.51mm
18:59 52.2 °F /  11.2 °C 49.4 °F /  9.7 °C 29.34in /  993.5hPa South 5.0mph /  8km/h 14.0mph /  22.5km/h 90% 0.02in /  0.51mm
19:04 52.3 °F /  11.3 °C 49.5 °F /  9.7 °C 29.34in /  993.5hPa SSE 11.0mph /  17.7km/h 16.0mph /  25.7km/h 90% 0.03in /  0.76mm
19:09 52.4 °F /  11.3 °C 49.3 °F /  9.6 °C 29.33in /  993.1hPa SSW 4.0mph /  6.4km/h 20.0mph /  32.2km/h 89% 0.03in /  0.76mm
19:14 52.4 °F /  11.3 °C 49.3 °F /  9.6 °C 29.33in /  993.1hPa SSW 5.0mph /  8km/h 16.0mph /  25.7km/h 89% 0.02in /  0.51mm
19:19 52.5 °F /  11.4 °C 49.4 °F /  9.7 °C 29.33in /  993.1hPa SW 8.0mph /  12.9km/h 17.0mph /  27.4km/h 89% 0.02in /  0.51mm
19:24 52.4 °F /  11.3 °C 49.3 °F /  9.6 °C 29.33in /  993.1hPa SSW 4.0mph /  6.4km/h 17.0mph /  27.4km/h 89% 0.03in /  0.76mm
19:29 52.5 °F /  11.4 °C 49.4 °F /  9.7 °C 29.33in /  993.1hPa SSW 8.0mph /  12.9km/h 17.0mph /  27.4km/h 89% 0.03in /  0.76mm
19:34 52.7 °F /  11.5 °C 49.2 °F /  9.6 °C 29.33in /  993.1hPa SSW 8.0mph /  12.9km/h 15.0mph /  24.1km/h 88% 0.03in /  0.76mm
19:39 52.6 °F /  11.4 °C 49.4 °F /  9.7 °C 29.33in /  993.1hPa SSW 7.0mph /  11.3km/h 17.0mph /  27.4km/h 89% 0.03in /  0.76mm
19:44 52.8 °F /  11.6 °C 49.6 °F /  9.8 °C 29.33in /  993.1hPa SSW 7.0mph /  11.3km/h 20.0mph /  32.2km/h 89% 0.02in /  0.51mm
19:49 53.0 °F /  11.7 °C 49.8 °F /  9.9 °C 29.33in /  993.1hPa SSW 8.0mph /  12.9km/h 24.0mph /  38.6km/h 89% 0.03in /  0.76mm
19:54 53.0 °F /  11.7 °C 49.8 °F /  9.9 °C 29.32in /  992.8hPa SSW 8.0mph /  12.9km/h 24.0mph /  38.6km/h 89% 0.03in /  0.76mm
19:59 53.0 °F /  11.7 °C 49.8 °F /  9.9 °C 29.32in /  992.8hPa SW 7.0mph /  11.3km/h 16.0mph /  25.7km/h 89% 0.04in /  1.02mm
20:04 53.1 °F /  11.7 °C 49.9 °F /  9.9 °C 29.32in /  992.8hPa South 6.0mph /  9.7km/h 17.0mph /  27.4km/h 89% 0.03in /  0.76mm
20:09 53.1 °F /  11.7 °C 49.6 °F /  9.8 °C 29.32in /  992.8hPa SSW 9.0mph /  14.5km/h 13.0mph /  20.9km/h 88% 0.03in /  0.76mm
20:14 53.2 °F /  11.8 °C 49.7 °F /  9.8 °C 29.31in /  992.4hPa SSW 9.0mph /  14.5km/h 14.0mph /  22.5km/h 88% 0.03in /  0.76mm
20:19 53.2 °F /  11.8 °C 49.7 °F /  9.8 °C 29.31in /  992.4hPa South 16.0mph /  25.7km/h 16.0mph /  25.7km/h 88% 0.04in /  1.02mm
20:24 53.4 °F /  11.9 °C 49.9 °F /  9.9 °C 29.31in /  992.4hPa ESE 5.0mph /  8km/h 16.0mph /  25.7km/h 88% 0.03in /  0.76mm
20:29 53.4 °F /  11.9 °C 49.9 °F /  9.9 °C 29.31in /  992.4hPa SSW 6.0mph /  9.7km/h 15.0mph /  24.1km/h 88% 0.03in /  0.76mm
20:34 53.5 °F /  11.9 °C 50.0 °F /  10 °C 29.31in /  992.4hPa SSW 8.0mph /  12.9km/h 12.0mph /  19.3km/h 88% 0.03in /  0.76mm
20:39 53.5 °F /  11.9 °C 50.0 °F /  10 °C 29.31in /  992.4hPa SSW 7.0mph /  11.3km/h 18.0mph /  29km/h 88% 0.03in /  0.76mm
20:44 53.8 °F /  12.1 °C 50.0 °F /  10 °C 29.30in /  992.1hPa SSW 8.0mph /  12.9km/h 18.0mph /  29km/h 87% 0.03in /  0.76mm
20:49 54.1 °F /  12.3 °C 50.3 °F /  10.2 °C 29.30in /  992.1hPa SSW 9.0mph /  14.5km/h 16.0mph /  25.7km/h 87% 0.02in /  0.51mm
20:54 54.0 °F /  12.2 °C 50.2 °F /  10.1 °C 29.30in /  992.1hPa SSW 8.0mph /  12.9km/h 15.0mph /  24.1km/h 87% 0.02in /  0.51mm
20:59 54.1 °F /  12.3 °C 50.0 °F /  10 °C 29.30in /  992.1hPa SSW 8.0mph /  12.9km/h 22.0mph /  35.4km/h 86% 0.01in /  0.25mm
21:04 53.9 °F /  12.2 °C 50.1 °F /  10.1 °C 29.29in /  991.8hPa South 2.0mph /  3.2km/h 14.0mph /  22.5km/h 87% 0.03in /  0.76mm
21:09 53.8 °F /  12.1 °C 50.3 °F /  10.2 °C 29.29in /  991.8hPa SSW 7.0mph /  11.3km/h 17.0mph /  27.4km/h 88% 0.04in /  1.02mm
21:14 53.7 °F /  12.1 °C 50.2 °F /  10.1 °C 29.30in /  992.1hPa South 14.0mph /  22.5km/h 16.0mph /  25.7km/h 88% 0.04in /  1.02mm
21:19 53.7 °F /  12.1 °C 50.2 °F /  10.1 °C 29.30in /  992.1hPa SW 12.0mph /  19.3km/h 17.0mph /  27.4km/h 88% 0.04in /  1.02mm
21:24 53.6 °F /  12 °C 50.1 °F /  10.1 °C 29.30in /  992.1hPa South 9.0mph /  14.5km/h 15.0mph /  24.1km/h 88% 0.04in /  1.02mm
21:29 53.6 °F /  12 °C 50.4 °F /  10.2 °C 29.30in /  992.1hPa SW 9.0mph /  14.5km/h 18.0mph /  29km/h 89% 0.04in /  1.02mm
21:34 53.6 °F /  12 °C 50.4 °F /  10.2 °C 29.30in /  992.1hPa South 6.0mph /  9.7km/h 22.0mph /  35.4km/h 89% 0.04in /  1.02mm
21:39 53.7 °F /  12.1 °C 50.5 °F /  10.3 °C 29.30in /  992.1hPa SW 16.0mph /  25.7km/h 24.0mph /  38.6km/h 89% 0.05in /  1.27mm
21:44 53.8 °F /  12.1 °C 50.3 °F /  10.2 °C 29.30in /  992.1hPa SSW 9.0mph /  14.5km/h 24.0mph /  38.6km/h 88% 0.05in /  1.27mm
21:49 53.9 °F /  12.2 °C 50.4 °F /  10.2 °C 29.30in /  992.1hPa SSW 9.0mph /  14.5km/h 19.0mph /  30.6km/h 88% 0.05in /  1.27mm
21:54 53.8 °F /  12.1 °C 50.3 °F /  10.2 °C 29.30in /  992.1hPa SSW 8.0mph /  12.9km/h 17.0mph /  27.4km/h 88% 0.05in /  1.27mm
21:59 53.8 °F /  12.1 °C 50.3 °F /  10.2 °C 29.30in /  992.1hPa SSW 7.0mph /  11.3km/h 15.0mph /  24.1km/h 88% 0.05in /  1.27mm
22:04 53.8 °F /  12.1 °C 50.3 °F /  10.2 °C 29.30in /  992.1hPa SSW 7.0mph /  11.3km/h 19.0mph /  30.6km/h 88% 0.03in /  0.76mm
22:09 53.8 °F /  12.1 °C 50.0 °F /  10 °C 29.30in /  992.1hPa SSW 7.0mph /  11.3km/h 19.0mph /  30.6km/h 87% 0.03in /  0.76mm
22:14 53.8 °F /  12.1 °C 50.3 °F /  10.2 °C 29.30in /  992.1hPa SW 7.0mph /  11.3km/h 17.0mph /  27.4km/h 88% 0.02in /  0.51mm
22:19 53.7 °F /  12.1 °C 50.2 °F /  10.1 °C 29.30in /  992.1hPa SSW 11.0mph /  17.7km/h 17.0mph /  27.4km/h 88% 0.02in /  0.51mm
22:24 53.9 °F /  12.2 °C 50.1 °F /  10.1 °C 29.29in /  991.8hPa SSE 12.0mph /  19.3km/h 21.0mph /  33.8km/h 87% 0.02in /  0.51mm
22:29 54.2 °F /  12.3 °C 50.4 °F /  10.2 °C 29.30in /  992.1hPa SSW 10.0mph /  16.1km/h 25.0mph /  40.2km/h 87% 0.02in /  0.51mm
22:34 54.3 °F /  12.4 °C 50.2 °F /  10.1 °C 29.30in /  992.1hPa SW 11.0mph /  17.7km/h 18.0mph /  29km/h 86% 0.02in /  0.51mm
22:39 54.3 °F /  12.4 °C 50.2 °F /  10.1 °C 29.30in /  992.1hPa SW 15.0mph /  24.1km/h 15.0mph /  24.1km/h 86% 0.01in /  0.25mm
22:44 54.5 °F /  12.5 °C 50.1 °F /  10.1 °C 29.30in /  992.1hPa SW 10.0mph /  16.1km/h 21.0mph /  33.8km/h 85% 0.01in /  0.25mm
22:49 54.6 °F /  12.6 °C 50.2 °F /  10.1 °C 29.30in /  992.1hPa SSW 7.0mph /  11.3km/h 17.0mph /  27.4km/h 85% 0.01in /  0.25mm
22:54 54.8 °F /  12.7 °C 50.1 °F /  10.1 °C 29.30in /  992.1hPa SW 10.0mph /  16.1km/h 26.0mph /  41.8km/h 84% 0.01in /  0.25mm
22:59 54.8 °F /  12.7 °C 50.1 °F /  10.1 °C 29.30in /  992.1hPa SW 11.0mph /  17.7km/h 26.0mph /  41.8km/h 84% 0.01in /  0.25mm
23:04 54.9 °F /  12.7 °C 49.8 °F /  9.9 °C 29.30in /  992.1hPa SW 12.0mph /  19.3km/h 22.0mph /  35.4km/h 83% 0.01in /  0.25mm
23:09 55.1 °F /  12.8 °C 50.0 °F /  10 °C 29.30in /  992.1hPa SW 13.0mph /  20.9km/h 27.0mph /  43.5km/h 83% 0.00in /  0mm
23:14 55.0 °F /  12.8 °C 49.9 °F /  9.9 °C 29.30in /  992.1hPa WSW 11.0mph /  17.7km/h 22.0mph /  35.4km/h 83% 0.00in /  0mm
23:19 55.0 °F /  12.8 °C 49.9 °F /  9.9 °C 29.30in /  992.1hPa WSW 11.0mph /  17.7km/h 24.0mph /  38.6km/h 83% 0.00in /  0mm
23:24 54.9 °F /  12.7 °C 49.8 °F /  9.9 °C 29.30in /  992.1hPa SW 13.0mph /  20.9km/h 25.0mph /  40.2km/h 83% 0.00in /  0mm
23:29 54.9 °F /  12.7 °C 49.5 °F /  9.7 °C 29.30in /  992.1hPa WSW 17.0mph /  27.4km/h 26.0mph /  41.8km/h 82% 0.00in /  0mm
23:34 54.9 °F /  12.7 °C 49.5 °F /  9.7 °C 29.30in /  992.1hPa SW 13.0mph /  20.9km/h 27.0mph /  43.5km/h 82% 0.00in /  0mm
23:39 54.6 °F /  12.6 °C 49.9 °F /  9.9 °C 29.31in /  992.4hPa WSW 19.0mph /  30.6km/h 25.0mph /  40.2km/h 84% 0.01in /  0.25mm
23:44 54.1 °F /  12.3 °C 49.1 °F /  9.5 °C 29.32in /  992.8hPa WSW 9.0mph /  14.5km/h 33.0mph /  53.1km/h 83% 0.01in /  0.25mm
23:49 53.4 °F /  11.9 °C 48.4 °F /  9.1 °C 29.31in /  992.4hPa WSW 15.0mph /  24.1km/h 37.0mph /  59.5km/h 83% 0.01in /  0.25mm
23:54 52.6 °F /  11.4 °C 47.9 °F /  8.8 °C 29.32in /  992.8hPa West 9.0mph /  14.5km/h 40.0mph /  64.4km/h 84% 0.01in /  0.25mm
23:59 52.1 °F /  11.2 °C 47.4 °F /  8.6 °C 29.32in /  992.8hPa WSW 15.0mph /  24.1km/h 40.0mph /  64.4km/h 84% 0.01in /  0.25mm
Buffalo, New York, USA
Compliments of Weather Underground - 2.5 mb